sensor_id;sensor_type;location;lat;lon;timestamp;P1;durP1;ratioP1;P2;durP2;ratioP2
56269;SDS011;42176;43.240;27.880;2022-09-03T00:10:39;14.82;;;2.90;;
56269;SDS011;42176;43.240;27.880;2022-09-03T00:13:13;9.20;;;2.42;;
56269;SDS011;42176;43.240;27.880;2022-09-03T00:15:41;5.57;;;2.22;;
56269;SDS011;42176;43.240;27.880;2022-09-03T00:18:09;4.13;;;2.20;;
56269;SDS011;42176;43.240;27.880;2022-09-03T00:20:41;8.00;;;2.55;;
56269;SDS011;42176;43.240;27.880;2022-09-03T00:23:13;9.70;;;2.50;;
56269;SDS011;42176;43.240;27.880;2022-09-03T00:25:46;4.15;;;2.20;;
56269;SDS011;42176;43.240;27.880;2022-09-03T00:28:25;6.35;;;2.70;;
56269;SDS011;42176;43.240;27.880;2022-09-03T00:31:16;13.68;;;2.80;;
56269;SDS011;42176;43.240;27.880;2022-09-03T00:33:52;10.20;;;2.78;;
56269;SDS011;42176;43.240;27.880;2022-09-03T00:36:24;5.95;;;3.05;;
56269;SDS011;42176;43.240;27.880;2022-09-03T00:38:56;7.72;;;3.10;;
56269;SDS011;42176;43.240;27.880;2022-09-03T00:47:17;7.00;;;2.95;;
56269;SDS011;42176;43.240;27.880;2022-09-03T00:57:57;8.50;;;3.65;;
56269;SDS011;42176;43.240;27.880;2022-09-03T01:00:37;5.30;;;2.85;;
56269;SDS011;42176;43.240;27.880;2022-09-03T01:03:10;7.93;;;3.45;;
56269;SDS011;42176;43.240;27.880;2022-09-03T01:08:15;7.88;;;3.65;;
56269;SDS011;42176;43.240;27.880;2022-09-03T01:16:52;5.40;;;2.67;;
56269;SDS011;42176;43.240;27.880;2022-09-03T01:25:22;4.50;;;2.15;;
56269;SDS011;42176;43.240;27.880;2022-09-03T01:31:07;5.20;;;2.55;;
56269;SDS011;42176;43.240;27.880;2022-09-03T01:33:59;6.03;;;2.10;;
56269;SDS011;42176;43.240;27.880;2022-09-03T01:39:11;4.57;;;2.28;;
56269;SDS011;42176;43.240;27.880;2022-09-03T01:50:33;1.95;;;1.50;;
56269;SDS011;42176;43.240;27.880;2022-09-03T01:58:53;3.20;;;1.95;;
56269;SDS011;42176;43.240;27.880;2022-09-03T02:01:32;2.70;;;2.25;;
56269;SDS011;42176;43.240;27.880;2022-09-03T02:04:22;4.05;;;2.67;;
56269;SDS011;42176;43.240;27.880;2022-09-03T02:06:49;3.85;;;2.40;;
56269;SDS011;42176;43.240;27.880;2022-09-03T02:09:16;5.15;;;2.20;;
56269;SDS011;42176;43.240;27.880;2022-09-03T02:11:43;2.35;;;1.73;;
56269;SDS011;42176;43.240;27.880;2022-09-03T02:14:15;2.42;;;2.22;;
56269;SDS011;42176;43.240;27.880;2022-09-03T02:16:41;5.40;;;2.78;;
56269;SDS011;42176;43.240;27.880;2022-09-03T02:19:10;2.78;;;2.28;;
56269;SDS011;42176;43.240;27.880;2022-09-03T02:21:39;2.97;;;2.58;;
56269;SDS011;42176;43.240;27.880;2022-09-03T02:24:10;4.78;;;1.90;;
56269;SDS011;42176;43.240;27.880;2022-09-03T02:26:36;3.65;;;2.60;;
56269;SDS011;42176;43.240;27.880;2022-09-03T02:29:02;6.68;;;2.80;;
56269;SDS011;42176;43.240;27.880;2022-09-03T02:31:28;3.15;;;2.85;;
56269;SDS011;42176;43.240;27.880;2022-09-03T02:33:54;4.38;;;3.05;;
56269;SDS011;42176;43.240;27.880;2022-09-03T02:36:26;4.00;;;3.33;;
56269;SDS011;42176;43.240;27.880;2022-09-03T02:41:27;5.35;;;3.67;;
56269;SDS011;42176;43.240;27.880;2022-09-03T02:43:54;6.25;;;3.63;;
56269;SDS011;42176;43.240;27.880;2022-09-03T02:49:27;5.00;;;2.75;;
56269;SDS011;42176;43.240;27.880;2022-09-03T02:52:04;3.85;;;3.05;;
56269;SDS011;42176;43.240;27.880;2022-09-03T02:54:33;8.02;;;3.30;;
56269;SDS011;42176;43.240;27.880;2022-09-03T02:57:04;4.22;;;3.47;;
56269;SDS011;42176;43.240;27.880;2022-09-03T02:59:34;3.78;;;3.10;;
56269;SDS011;42176;43.240;27.880;2022-09-03T03:02:00;9.10;;;5.03;;
56269;SDS011;42176;43.240;27.880;2022-09-03T03:04:26;7.25;;;3.72;;
56269;SDS011;42176;43.240;27.880;2022-09-03T03:06:53;7.78;;;3.58;;
56269;SDS011;42176;43.240;27.880;2022-09-03T03:09:19;8.25;;;3.90;;
56269;SDS011;42176;43.240;27.880;2022-09-03T03:11:44;3.60;;;3.25;;
56269;SDS011;42176;43.240;27.880;2022-09-03T03:14:10;4.55;;;3.03;;
56269;SDS011;42176;43.240;27.880;2022-09-03T03:16:36;7.60;;;2.92;;
56269;SDS011;42176;43.240;27.880;2022-09-03T03:19:01;3.13;;;2.55;;
56269;SDS011;42176;43.240;27.880;2022-09-03T03:21:27;3.35;;;2.70;;
56269;SDS011;42176;43.240;27.880;2022-09-03T03:23:53;6.80;;;3.40;;
56269;SDS011;42176;43.240;27.880;2022-09-03T03:26:19;4.72;;;2.95;;
56269;SDS011;42176;43.240;27.880;2022-09-03T03:28:46;7.72;;;3.03;;
56269;SDS011;42176;43.240;27.880;2022-09-03T03:31:16;6.95;;;3.47;;
56269;SDS011;42176;43.240;27.880;2022-09-03T03:33:49;5.63;;;2.65;;
56269;SDS011;42176;43.240;27.880;2022-09-03T03:36:19;4.68;;;3.00;;
56269;SDS011;42176;43.240;27.880;2022-09-03T03:38:46;6.03;;;2.95;;
56269;SDS011;42176;43.240;27.880;2022-09-03T03:41:22;3.63;;;2.70;;
56269;SDS011;42176;43.240;27.880;2022-09-03T03:43:55;5.63;;;3.20;;
56269;SDS011;42176;43.240;27.880;2022-09-03T03:46:23;6.07;;;3.40;;
56269;SDS011;42176;43.240;27.880;2022-09-03T03:48:50;6.22;;;3.30;;
56269;SDS011;42176;43.240;27.880;2022-09-03T03:51:16;3.45;;;2.90;;
56269;SDS011;42176;43.240;27.880;2022-09-03T03:53:43;4.47;;;2.97;;
56269;SDS011;42176;43.240;27.880;2022-09-03T03:56:11;6.38;;;3.50;;
56269;SDS011;42176;43.240;27.880;2022-09-03T03:58:38;8.35;;;3.60;;
56269;SDS011;42176;43.240;27.880;2022-09-03T04:01:09;3.65;;;3.05;;
56269;SDS011;42176;43.240;27.880;2022-09-03T04:03:36;5.70;;;3.10;;
56269;SDS011;42176;43.240;27.880;2022-09-03T04:06:02;8.35;;;3.72;;
56269;SDS011;42176;43.240;27.880;2022-09-03T04:08:29;3.88;;;2.83;;
56269;SDS011;42176;43.240;27.880;2022-09-03T04:10:58;4.70;;;3.60;;
56269;SDS011;42176;43.240;27.880;2022-09-03T04:13:36;4.70;;;3.00;;
56269;SDS011;42176;43.240;27.880;2022-09-03T04:16:06;4.63;;;2.90;;
56269;SDS011;42176;43.240;27.880;2022-09-03T04:18:32;3.88;;;3.22;;
56269;SDS011;42176;43.240;27.880;2022-09-03T04:21:18;4.50;;;3.38;;
56269;SDS011;42176;43.240;27.880;2022-09-03T04:23:46;6.03;;;3.38;;
56269;SDS011;42176;43.240;27.880;2022-09-03T04:26:15;3.80;;;2.90;;
56269;SDS011;42176;43.240;27.880;2022-09-03T04:28:43;7.90;;;3.60;;
56269;SDS011;42176;43.240;27.880;2022-09-03T04:31:10;6.28;;;3.15;;
56269;SDS011;42176;43.240;27.880;2022-09-03T04:33:37;5.63;;;3.55;;
56269;SDS011;42176;43.240;27.880;2022-09-03T04:36:10;4.43;;;3.80;;
56269;SDS011;42176;43.240;27.880;2022-09-03T04:38:41;5.03;;;3.80;;
56269;SDS011;42176;43.240;27.880;2022-09-03T04:41:11;6.18;;;3.75;;
56269;SDS011;42176;43.240;27.880;2022-09-03T04:43:39;5.30;;;3.95;;
56269;SDS011;42176;43.240;27.880;2022-09-03T04:46:08;6.55;;;3.83;;
56269;SDS011;42176;43.240;27.880;2022-09-03T04:48:36;4.00;;;3.33;;
56269;SDS011;42176;43.240;27.880;2022-09-03T04:53:36;4.97;;;3.40;;
56269;SDS011;42176;43.240;27.880;2022-09-03T04:56:11;6.10;;;4.10;;
56269;SDS011;42176;43.240;27.880;2022-09-03T04:58:42;6.22;;;3.20;;
56269;SDS011;42176;43.240;27.880;2022-09-03T05:01:09;6.38;;;3.80;;
56269;SDS011;42176;43.240;27.880;2022-09-03T05:03:42;8.50;;;3.83;;
56269;SDS011;42176;43.240;27.880;2022-09-03T05:06:08;6.97;;;3.90;;
56269;SDS011;42176;43.240;27.880;2022-09-03T05:08:34;4.82;;;3.80;;
56269;SDS011;42176;43.240;27.880;2022-09-03T05:11:01;5.90;;;3.90;;
56269;SDS011;42176;43.240;27.880;2022-09-03T05:13:30;5.70;;;3.80;;
56269;SDS011;42176;43.240;27.880;2022-09-03T05:15:57;6.65;;;3.90;;
56269;SDS011;42176;43.240;27.880;2022-09-03T05:18:24;5.95;;;3.92;;
56269;SDS011;42176;43.240;27.880;2022-09-03T05:20:56;9.45;;;4.75;;
56269;SDS011;42176;43.240;27.880;2022-09-03T05:23:30;5.15;;;4.63;;
56269;SDS011;42176;43.240;27.880;2022-09-03T05:26:00;6.18;;;4.70;;
56269;SDS011;42176;43.240;27.880;2022-09-03T05:28:28;6.75;;;4.20;;
56269;SDS011;42176;43.240;27.880;2022-09-03T05:31:05;9.30;;;4.72;;
56269;SDS011;42176;43.240;27.880;2022-09-03T05:33:32;6.63;;;4.72;;
56269;SDS011;42176;43.240;27.880;2022-09-03T05:36:00;13.35;;;4.88;;
56269;SDS011;42176;43.240;27.880;2022-09-03T05:38:29;7.60;;;4.85;;
56269;SDS011;42176;43.240;27.880;2022-09-03T05:40:58;8.45;;;4.85;;
56269;SDS011;42176;43.240;27.880;2022-09-03T05:43:28;10.35;;;5.57;;
56269;SDS011;42176;43.240;27.880;2022-09-03T05:45:57;9.20;;;5.70;;
56269;SDS011;42176;43.240;27.880;2022-09-03T05:48:26;8.73;;;6.10;;
56269;SDS011;42176;43.240;27.880;2022-09-03T05:51:02;11.75;;;6.25;;
56269;SDS011;42176;43.240;27.880;2022-09-03T05:53:37;7.88;;;6.18;;
56269;SDS011;42176;43.240;27.880;2022-09-03T05:56:05;17.77;;;6.65;;
56269;SDS011;42176;43.240;27.880;2022-09-03T05:58:38;13.02;;;8.50;;
56269;SDS011;42176;43.240;27.880;2022-09-03T06:01:09;15.27;;;8.02;;
56269;SDS011;42176;43.240;27.880;2022-09-03T06:03:39;13.57;;;7.20;;
56269;SDS011;42176;43.240;27.880;2022-09-03T06:06:06;14.38;;;6.85;;
56269;SDS011;42176;43.240;27.880;2022-09-03T06:08:33;12.48;;;8.18;;
56269;SDS011;42176;43.240;27.880;2022-09-03T06:11:00;10.52;;;5.65;;
56269;SDS011;42176;43.240;27.880;2022-09-03T06:13:30;10.70;;;6.30;;
56269;SDS011;42176;43.240;27.880;2022-09-03T06:15:56;11.38;;;7.25;;
56269;SDS011;42176;43.240;27.880;2022-09-03T06:18:27;11.88;;;6.18;;
56269;SDS011;42176;43.240;27.880;2022-09-03T06:20:57;13.73;;;6.05;;
56269;SDS011;42176;43.240;27.880;2022-09-03T06:23:26;10.50;;;5.80;;
56269;SDS011;42176;43.240;27.880;2022-09-03T06:26:02;12.00;;;6.45;;
56269;SDS011;42176;43.240;27.880;2022-09-03T06:28:33;13.60;;;6.10;;
56269;SDS011;42176;43.240;27.880;2022-09-03T06:31:01;10.73;;;6.50;;
56269;SDS011;42176;43.240;27.880;2022-09-03T06:33:28;11.27;;;6.22;;
56269;SDS011;42176;43.240;27.880;2022-09-03T06:36:00;10.70;;;6.63;;
56269;SDS011;42176;43.240;27.880;2022-09-03T06:38:30;10.73;;;6.15;;
56269;SDS011;42176;43.240;27.880;2022-09-03T06:40:57;8.80;;;5.80;;
56269;SDS011;42176;43.240;27.880;2022-09-03T06:43:28;9.25;;;6.00;;
56269;SDS011;42176;43.240;27.880;2022-09-03T06:45:59;9.85;;;5.93;;
56269;SDS011;42176;43.240;27.880;2022-09-03T06:48:27;8.48;;;5.70;;
56269;SDS011;42176;43.240;27.880;2022-09-03T06:53:27;11.68;;;5.82;;
56269;SDS011;42176;43.240;27.880;2022-09-03T06:55:59;10.05;;;6.65;;
56269;SDS011;42176;43.240;27.880;2022-09-03T06:58:30;13.15;;;7.07;;
56269;SDS011;42176;43.240;27.880;2022-09-03T07:01:03;9.45;;;6.03;;
56269;SDS011;42176;43.240;27.880;2022-09-03T07:03:31;7.60;;;6.13;;
56269;SDS011;42176;43.240;27.880;2022-09-03T07:06:00;7.93;;;5.18;;
56269;SDS011;42176;43.240;27.880;2022-09-03T07:08:27;11.52;;;4.80;;
56269;SDS011;42176;43.240;27.880;2022-09-03T07:10:54;11.77;;;6.05;;
56269;SDS011;42176;43.240;27.880;2022-09-03T07:13:19;6.22;;;4.57;;
56269;SDS011;42176;43.240;27.880;2022-09-03T07:15:45;8.25;;;4.88;;
56269;SDS011;42176;43.240;27.880;2022-09-03T07:18:11;7.70;;;5.43;;
56269;SDS011;42176;43.240;27.880;2022-09-03T07:20:36;11.88;;;6.18;;
56269;SDS011;42176;43.240;27.880;2022-09-03T07:23:01;8.10;;;5.32;;
56269;SDS011;42176;43.240;27.880;2022-09-03T07:25:27;6.25;;;5.07;;
56269;SDS011;42176;43.240;27.880;2022-09-03T07:27:55;8.02;;;4.78;;
56269;SDS011;42176;43.240;27.880;2022-09-03T07:30:22;14.77;;;6.40;;
56269;SDS011;42176;43.240;27.880;2022-09-03T07:32:49;10.90;;;6.78;;
56269;SDS011;42176;43.240;27.880;2022-09-03T07:35:15;14.75;;;7.20;;
56269;SDS011;42176;43.240;27.880;2022-09-03T07:37:42;14.38;;;7.53;;
56269;SDS011;42176;43.240;27.880;2022-09-03T07:40:08;13.88;;;8.25;;
56269;SDS011;42176;43.240;27.880;2022-09-03T07:42:35;17.88;;;6.90;;
56269;SDS011;42176;43.240;27.880;2022-09-03T07:45:04;16.67;;;5.00;;
56269;SDS011;42176;43.240;27.880;2022-09-03T07:47:36;11.77;;;7.15;;
56269;SDS011;42176;43.240;27.880;2022-09-03T07:50:02;9.60;;;6.55;;
56269;SDS011;42176;43.240;27.880;2022-09-03T07:52:29;10.10;;;5.75;;
56269;SDS011;42176;43.240;27.880;2022-09-03T07:54:54;14.95;;;7.50;;
56269;SDS011;42176;43.240;27.880;2022-09-03T07:57:20;12.93;;;6.78;;
56269;SDS011;42176;43.240;27.880;2022-09-03T07:59:45;12.90;;;6.50;;
56269;SDS011;42176;43.240;27.880;2022-09-03T08:02:11;13.77;;;6.38;;
56269;SDS011;42176;43.240;27.880;2022-09-03T08:04:37;13.75;;;7.03;;
56269;SDS011;42176;43.240;27.880;2022-09-03T08:07:02;9.00;;;5.68;;
56269;SDS011;42176;43.240;27.880;2022-09-03T08:09:29;12.73;;;6.93;;
56269;SDS011;42176;43.240;27.880;2022-09-03T08:11:56;15.38;;;7.28;;
56269;SDS011;42176;43.240;27.880;2022-09-03T08:14:24;9.05;;;6.13;;
56269;SDS011;42176;43.240;27.880;2022-09-03T08:16:49;10.43;;;5.85;;
56269;SDS011;42176;43.240;27.880;2022-09-03T08:19:15;6.63;;;5.25;;
56269;SDS011;42176;43.240;27.880;2022-09-03T08:21:42;7.47;;;5.63;;
56269;SDS011;42176;43.240;27.880;2022-09-03T08:24:09;11.35;;;6.28;;
56269;SDS011;42176;43.240;27.880;2022-09-03T08:26:36;10.40;;;6.80;;
56269;SDS011;42176;43.240;27.880;2022-09-03T08:29:03;8.60;;;5.15;;
56269;SDS011;42176;43.240;27.880;2022-09-03T08:31:30;9.75;;;6.05;;
56269;SDS011;42176;43.240;27.880;2022-09-03T08:34:01;11.43;;;5.97;;
56269;SDS011;42176;43.240;27.880;2022-09-03T08:36:29;8.25;;;5.15;;
56269;SDS011;42176;43.240;27.880;2022-09-03T08:38:56;8.23;;;5.40;;
56269;SDS011;42176;43.240;27.880;2022-09-03T08:41:25;6.80;;;5.20;;
56269;SDS011;42176;43.240;27.880;2022-09-03T08:46:59;8.85;;;5.38;;
56269;SDS011;42176;43.240;27.880;2022-09-03T08:49:33;10.07;;;5.75;;
56269;SDS011;42176;43.240;27.880;2022-09-03T08:52:23;10.43;;;6.27;;
56269;SDS011;42176;43.240;27.880;2022-09-03T08:57:47;7.28;;;5.28;;
56269;SDS011;42176;43.240;27.880;2022-09-03T09:00:15;10.35;;;5.45;;
56269;SDS011;42176;43.240;27.880;2022-09-03T09:05:50;6.28;;;4.65;;
56269;SDS011;42176;43.240;27.880;2022-09-03T09:08:27;8.20;;;5.65;;
56269;SDS011;42176;43.240;27.880;2022-09-03T09:11:53;9.32;;;6.20;;
56269;SDS011;42176;43.240;27.880;2022-09-03T09:13:58;6.57;;;4.65;;
56269;SDS011;42176;43.240;27.880;2022-09-03T09:16:35;5.97;;;4.53;;
56269;SDS011;42176;43.240;27.880;2022-09-03T09:21:48;12.68;;;6.18;;
56269;SDS011;42176;43.240;27.880;2022-09-03T09:24:22;8.55;;;5.65;;
56269;SDS011;42176;43.240;27.880;2022-09-03T09:27:02;8.35;;;5.38;;
56269;SDS011;42176;43.240;27.880;2022-09-03T09:29:34;8.95;;;4.88;;
56269;SDS011;42176;43.240;27.880;2022-09-03T09:32:01;8.93;;;5.75;;
56269;SDS011;42176;43.240;27.880;2022-09-03T09:34:32;5.72;;;4.93;;
56269;SDS011;42176;43.240;27.880;2022-09-03T09:37:00;9.40;;;5.77;;
56269;SDS011;42176;43.240;27.880;2022-09-03T09:39:30;6.97;;;4.65;;
56269;SDS011;42176;43.240;27.880;2022-09-03T09:41:59;6.30;;;4.63;;
56269;SDS011;42176;43.240;27.880;2022-09-03T09:44:29;11.57;;;6.45;;
56269;SDS011;42176;43.240;27.880;2022-09-03T09:47:05;5.85;;;4.60;;
56269;SDS011;42176;43.240;27.880;2022-09-03T09:49:56;6.60;;;4.55;;
56269;SDS011;42176;43.240;27.880;2022-09-03T09:52:23;6.22;;;3.78;;
56269;SDS011;42176;43.240;27.880;2022-09-03T09:54:52;4.20;;;3.72;;
56269;SDS011;42176;43.240;27.880;2022-09-03T09:57:32;6.22;;;4.68;;
56269;SDS011;42176;43.240;27.880;2022-09-03T10:00:05;8.27;;;4.32;;
56269;SDS011;42176;43.240;27.880;2022-09-03T10:02:37;5.93;;;4.10;;
56269;SDS011;42176;43.240;27.880;2022-09-03T10:05:13;4.53;;;3.65;;
56269;SDS011;42176;43.240;27.880;2022-09-03T10:07:55;7.15;;;4.32;;
56269;SDS011;42176;43.240;27.880;2022-09-03T10:10:23;11.15;;;5.30;;
56269;SDS011;42176;43.240;27.880;2022-09-03T10:13:09;5.93;;;4.53;;
56269;SDS011;42176;43.240;27.880;2022-09-03T10:15:48;5.38;;;4.80;;
56269;SDS011;42176;43.240;27.880;2022-09-03T10:18:37;3.80;;;3.20;;
56269;SDS011;42176;43.240;27.880;2022-09-03T10:26:29;5.60;;;4.65;;
56269;SDS011;42176;43.240;27.880;2022-09-03T10:28:58;5.20;;;3.70;;
56269;SDS011;42176;43.240;27.880;2022-09-03T10:45:37;5.30;;;4.20;;
56269;SDS011;42176;43.240;27.880;2022-09-03T10:48:15;6.95;;;4.40;;
56269;SDS011;42176;43.240;27.880;2022-09-03T10:50:46;4.60;;;3.90;;
56269;SDS011;42176;43.240;27.880;2022-09-03T11:06:28;10.43;;;4.57;;
56269;SDS011;42176;43.240;27.880;2022-09-03T11:09:05;5.82;;;3.95;;
56269;SDS011;42176;43.240;27.880;2022-09-03T11:11:41;3.22;;;2.90;;
56269;SDS011;42176;43.240;27.880;2022-09-03T11:14:15;5.32;;;3.47;;
56269;SDS011;42176;43.240;27.880;2022-09-03T11:16:53;6.20;;;4.75;;
56269;SDS011;42176;43.240;27.880;2022-09-03T11:19:50;11.13;;;4.10;;
56269;SDS011;42176;43.240;27.880;2022-09-03T11:24:49;6.50;;;3.78;;
56269;SDS011;42176;43.240;27.880;2022-09-03T11:27:28;6.40;;;4.10;;
56269;SDS011;42176;43.240;27.880;2022-09-03T11:30:23;5.72;;;3.30;;
56269;SDS011;42176;43.240;27.880;2022-09-03T11:32:57;4.47;;;3.63;;
56269;SDS011;42176;43.240;27.880;2022-09-03T11:37:59;3.35;;;3.03;;
56269;SDS011;42176;43.240;27.880;2022-09-03T11:40:34;4.60;;;3.25;;
56269;SDS011;42176;43.240;27.880;2022-09-03T11:45:45;5.60;;;3.22;;
56269;SDS011;42176;43.240;27.880;2022-09-03T11:50:58;5.53;;;4.00;;
56269;SDS011;42176;43.240;27.880;2022-09-03T11:53:31;5.75;;;3.95;;
56269;SDS011;42176;43.240;27.880;2022-09-03T11:56:19;6.28;;;3.90;;
56269;SDS011;42176;43.240;27.880;2022-09-03T11:58:44;5.13;;;3.67;;
56269;SDS011;42176;43.240;27.880;2022-09-03T12:01:12;8.65;;;4.53;;
56269;SDS011;42176;43.240;27.880;2022-09-03T12:03:50;4.07;;;3.55;;
56269;SDS011;42176;43.240;27.880;2022-09-03T12:14:18;8.02;;;4.78;;
56269;SDS011;42176;43.240;27.880;2022-09-03T12:19:28;5.55;;;4.20;;
56269;SDS011;42176;43.240;27.880;2022-09-03T12:22:05;6.93;;;4.35;;
56269;SDS011;42176;43.240;27.880;2022-09-03T12:24:30;7.88;;;3.10;;
56269;SDS011;42176;43.240;27.880;2022-09-03T12:27:01;3.85;;;3.25;;
56269;SDS011;42176;43.240;27.880;2022-09-03T12:29:28;5.55;;;3.50;;
56269;SDS011;42176;43.240;27.880;2022-09-03T12:31:55;6.65;;;3.80;;
56269;SDS011;42176;43.240;27.880;2022-09-03T12:34:30;4.63;;;4.00;;
56269;SDS011;42176;43.240;27.880;2022-09-03T12:36:56;7.40;;;4.78;;
56269;SDS011;42176;43.240;27.880;2022-09-03T12:44:25;3.70;;;2.72;;
56269;SDS011;42176;43.240;27.880;2022-09-03T12:47:27;10.15;;;5.65;;
56269;SDS011;42176;43.240;27.880;2022-09-03T12:49:49;9.38;;;6.70;;
56269;SDS011;42176;43.240;27.880;2022-09-03T12:58:36;6.75;;;3.25;;
56269;SDS011;42176;43.240;27.880;2022-09-03T13:01:15;4.85;;;3.78;;
56269;SDS011;42176;43.240;27.880;2022-09-03T13:04:22;4.03;;;3.63;;
56269;SDS011;42176;43.240;27.880;2022-09-03T13:09:18;3.10;;;2.78;;
56269;SDS011;42176;43.240;27.880;2022-09-03T13:11:46;6.40;;;4.43;;
56269;SDS011;42176;43.240;27.880;2022-09-03T13:14:11;7.50;;;4.25;;
56269;SDS011;42176;43.240;27.880;2022-09-03T13:16:46;4.47;;;4.07;;
56269;SDS011;42176;43.240;27.880;2022-09-03T13:19:45;4.38;;;3.20;;
56269;SDS011;42176;43.240;27.880;2022-09-03T13:33:33;5.43;;;3.42;;
56269;SDS011;42176;43.240;27.880;2022-09-03T13:36:12;3.88;;;3.33;;
56269;SDS011;42176;43.240;27.880;2022-09-03T13:46:42;6.25;;;3.45;;
56269;SDS011;42176;43.240;27.880;2022-09-03T13:55:30;6.85;;;3.65;;
56269;SDS011;42176;43.240;27.880;2022-09-03T13:57:54;6.43;;;4.28;;
56269;SDS011;42176;43.240;27.880;2022-09-03T14:00:42;6.50;;;4.20;;
56269;SDS011;42176;43.240;27.880;2022-09-03T14:03:22;5.57;;;3.70;;
56269;SDS011;42176;43.240;27.880;2022-09-03T14:11:28;5.38;;;3.28;;
56269;SDS011;42176;43.240;27.880;2022-09-03T14:19:31;2.97;;;2.67;;
56269;SDS011;42176;43.240;27.880;2022-09-03T14:22:20;4.78;;;3.45;;
56269;SDS011;42176;43.240;27.880;2022-09-03T14:25:00;5.32;;;2.40;;
56269;SDS011;42176;43.240;27.880;2022-09-03T14:27:34;3.78;;;3.22;;
56269;SDS011;42176;43.240;27.880;2022-09-03T14:30:01;7.75;;;5.57;;
56269;SDS011;42176;43.240;27.880;2022-09-03T14:35:25;3.08;;;2.55;;
56269;SDS011;42176;43.240;27.880;2022-09-03T14:38:12;2.28;;;1.83;;
56269;SDS011;42176;43.240;27.880;2022-09-03T14:55:06;2.75;;;1.98;;
56269;SDS011;42176;43.240;27.880;2022-09-03T15:00:15;6.80;;;2.60;;
56269;SDS011;42176;43.240;27.880;2022-09-03T15:10:54;3.88;;;2.72;;
56269;SDS011;42176;43.240;27.880;2022-09-03T15:13:26;4.88;;;3.10;;
56269;SDS011;42176;43.240;27.880;2022-09-03T15:19:34;6.00;;;2.83;;
56269;SDS011;42176;43.240;27.880;2022-09-03T15:30:15;5.18;;;4.30;;
56269;SDS011;42176;43.240;27.880;2022-09-03T15:38:00;6.85;;;4.68;;
56269;SDS011;42176;43.240;27.880;2022-09-03T15:40:34;11.40;;;8.55;;
56269;SDS011;42176;43.240;27.880;2022-09-03T15:43:16;11.43;;;4.25;;
56269;SDS011;42176;43.240;27.880;2022-09-03T15:45:54;5.97;;;4.65;;
56269;SDS011;42176;43.240;27.880;2022-09-03T15:48:34;6.18;;;4.80;;
56269;SDS011;42176;43.240;27.880;2022-09-03T15:51:24;8.55;;;5.25;;
56269;SDS011;42176;43.240;27.880;2022-09-03T15:56:57;6.00;;;4.70;;
56269;SDS011;42176;43.240;27.880;2022-09-03T15:59:28;9.63;;;6.20;;
56269;SDS011;42176;43.240;27.880;2022-09-03T16:01:58;11.95;;;5.95;;
56269;SDS011;42176;43.240;27.880;2022-09-03T16:09:59;6.75;;;5.78;;
56269;SDS011;42176;43.240;27.880;2022-09-03T16:12:46;4.85;;;3.92;;
56269;SDS011;42176;43.240;27.880;2022-09-03T16:15:26;5.85;;;4.70;;
56269;SDS011;42176;43.240;27.880;2022-09-03T16:20:38;7.45;;;5.35;;
56269;SDS011;42176;43.240;27.880;2022-09-03T16:25:55;7.43;;;5.22;;
56269;SDS011;42176;43.240;27.880;2022-09-03T16:28:36;7.03;;;5.40;;
56269;SDS011;42176;43.240;27.880;2022-09-03T16:37:02;9.02;;;6.28;;
56269;SDS011;42176;43.240;27.880;2022-09-03T16:45:06;7.60;;;4.50;;
56269;SDS011;42176;43.240;27.880;2022-09-03T16:47:43;10.73;;;4.95;;
56269;SDS011;42176;43.240;27.880;2022-09-03T16:50:19;11.85;;;4.80;;
56269;SDS011;42176;43.240;27.880;2022-09-03T16:58:49;7.47;;;5.00;;
56269;SDS011;42176;43.240;27.880;2022-09-03T17:04:34;8.13;;;5.60;;
56269;SDS011;42176;43.240;27.880;2022-09-03T17:07:10;6.80;;;5.72;;
56269;SDS011;42176;43.240;27.880;2022-09-03T17:12:28;6.70;;;5.32;;
56269;SDS011;42176;43.240;27.880;2022-09-03T17:18:05;8.30;;;5.60;;
56269;SDS011;42176;43.240;27.880;2022-09-03T17:36:18;6.28;;;4.97;;
56269;SDS011;42176;43.240;27.880;2022-09-03T17:47:36;6.40;;;4.60;;
56269;SDS011;42176;43.240;27.880;2022-09-03T17:50:34;8.50;;;5.35;;
56269;SDS011;42176;43.240;27.880;2022-09-03T17:53:15;7.05;;;5.10;;
56269;SDS011;42176;43.240;27.880;2022-09-03T17:55:52;6.18;;;5.55;;
56269;SDS011;42176;43.240;27.880;2022-09-03T17:58:31;8.57;;;5.22;;
56269;SDS011;42176;43.240;27.880;2022-09-03T18:01:03;7.43;;;5.45;;
56269;SDS011;42176;43.240;27.880;2022-09-03T18:03:31;6.68;;;4.85;;
56269;SDS011;42176;43.240;27.880;2022-09-03T18:06:09;6.75;;;5.78;;
56269;SDS011;42176;43.240;27.880;2022-09-03T18:08:46;6.60;;;4.97;;
56269;SDS011;42176;43.240;27.880;2022-09-03T18:11:26;19.58;;;6.78;;
56269;SDS011;42176;43.240;27.880;2022-09-03T18:16:33;5.32;;;4.35;;
56269;SDS011;42176;43.240;27.880;2022-09-03T18:19:18;7.57;;;4.35;;
56269;SDS011;42176;43.240;27.880;2022-09-03T18:21:59;4.68;;;4.18;;
56269;SDS011;42176;43.240;27.880;2022-09-03T18:24:53;6.93;;;3.97;;
56269;SDS011;42176;43.240;27.880;2022-09-03T18:30:27;5.72;;;3.50;;
56269;SDS011;42176;43.240;27.880;2022-09-03T18:33:11;3.92;;;2.97;;
56269;SDS011;42176;43.240;27.880;2022-09-03T18:35:55;3.67;;;3.30;;
56269;SDS011;42176;43.240;27.880;2022-09-03T18:38:41;3.40;;;3.10;;
56269;SDS011;42176;43.240;27.880;2022-09-03T18:41:46;4.55;;;3.70;;
56269;SDS011;42176;43.240;27.880;2022-09-03T18:57:31;5.63;;;3.35;;
56269;SDS011;42176;43.240;27.880;2022-09-03T19:00:25;8.13;;;4.82;;
56269;SDS011;42176;43.240;27.880;2022-09-03T19:06:38;6.55;;;4.57;;
56269;SDS011;42176;43.240;27.880;2022-09-03T19:09:36;5.15;;;4.28;;
56269;SDS011;42176;43.240;27.880;2022-09-03T19:15:16;7.85;;;4.95;;
56269;SDS011;42176;43.240;27.880;2022-09-03T19:18:07;4.18;;;3.28;;
56269;SDS011;42176;43.240;27.880;2022-09-03T19:24:10;11.25;;;5.85;;
56269;SDS011;42176;43.240;27.880;2022-09-03T19:27:06;8.55;;;5.38;;
56269;SDS011;42176;43.240;27.880;2022-09-03T19:30:03;13.05;;;5.63;;
56269;SDS011;42176;43.240;27.880;2022-09-03T19:36:17;7.95;;;5.32;;
56269;SDS011;42176;43.240;27.880;2022-09-03T19:39:53;8.52;;;4.63;;
56269;SDS011;42176;43.240;27.880;2022-09-03T19:42:38;10.70;;;5.93;;
56269;SDS011;42176;43.240;27.880;2022-09-03T19:45:41;11.80;;;5.38;;
56269;SDS011;42176;43.240;27.880;2022-09-03T19:49:02;7.78;;;4.90;;
56269;SDS011;42176;43.240;27.880;2022-09-03T19:51:55;7.30;;;5.20;;
56269;SDS011;42176;43.240;27.880;2022-09-03T19:54:47;6.32;;;5.10;;
56269;SDS011;42176;43.240;27.880;2022-09-03T19:57:35;8.77;;;5.32;;
56269;SDS011;42176;43.240;27.880;2022-09-03T20:00:19;8.30;;;6.10;;
56269;SDS011;42176;43.240;27.880;2022-09-03T20:03:03;10.63;;;5.78;;
56269;SDS011;42176;43.240;27.880;2022-09-03T20:05:48;14.27;;;5.95;;
56269;SDS011;42176;43.240;27.880;2022-09-03T20:08:34;8.40;;;6.03;;
56269;SDS011;42176;43.240;27.880;2022-09-03T20:11:19;10.25;;;7.78;;
56269;SDS011;42176;43.240;27.880;2022-09-03T20:13:47;9.02;;;5.50;;
56269;SDS011;42176;43.240;27.880;2022-09-03T20:28:03;9.23;;;5.13;;
56269;SDS011;42176;43.240;27.880;2022-09-03T20:33:53;11.73;;;5.45;;
56269;SDS011;42176;43.240;27.880;2022-09-03T20:38:55;6.32;;;4.28;;
56269;SDS011;42176;43.240;27.880;2022-09-03T20:44:46;7.13;;;4.93;;
56269;SDS011;42176;43.240;27.880;2022-09-03T20:47:22;7.85;;;5.38;;
56269;SDS011;42176;43.240;27.880;2022-09-03T20:55:53;5.28;;;4.18;;
56269;SDS011;42176;43.240;27.880;2022-09-03T20:58:30;6.63;;;4.35;;
56269;SDS011;42176;43.240;27.880;2022-09-03T21:01:13;6.72;;;4.80;;